createdAt,value
2019-02-21T00:00:48.172Z,3.33
2019-02-21T00:03:19.741Z,3.23
2019-02-21T00:05:51.191Z,3.13
2019-02-21T00:08:22.590Z,3.12
2019-02-21T00:10:53.866Z,3.14
2019-02-21T00:13:38.295Z,3.13
2019-02-21T00:16:09.652Z,3.14
2019-02-21T00:18:41.028Z,3.16
2019-02-21T00:21:12.604Z,3.09
2019-02-21T00:23:43.952Z,3.11
2019-02-21T00:26:15.205Z,3.14
2019-02-21T00:28:46.750Z,3.13
2019-02-21T00:31:18.218Z,3.04
2019-02-21T00:33:49.619Z,3.02
2019-02-21T00:36:21.968Z,2.94
2019-02-21T00:38:53.277Z,2.83
2019-02-21T00:41:24.617Z,2.78
2019-02-21T00:43:55.965Z,2.66
2019-02-21T00:46:27.425Z,2.59
2019-02-21T00:48:58.788Z,2.51
2019-02-21T00:51:30.096Z,2.47
2019-02-21T00:54:01.397Z,2.46
2019-02-21T00:56:32.913Z,2.43
2019-02-21T00:59:04.326Z,2.44
2019-02-21T01:01:35.777Z,2.39
2019-02-21T01:04:07.335Z,2.32
2019-02-21T01:06:38.762Z,2.34
2019-02-21T01:09:10.135Z,2.32
2019-02-21T01:11:41.611Z,2.39
2019-02-21T01:14:13.078Z,2.45
2019-02-21T01:16:44.463Z,2.39
2019-02-21T01:19:15.873Z,2.36
2019-02-21T01:21:47.178Z,2.33
2019-02-21T01:24:18.443Z,2.30
2019-02-21T01:26:50.887Z,2.27
2019-02-21T01:29:22.315Z,2.19
2019-02-21T01:31:53.777Z,2.16
2019-02-21T01:34:25.218Z,2.15
2019-02-21T01:36:56.550Z,2.15
2019-02-21T01:39:27.965Z,2.18
2019-02-21T01:41:59.537Z,2.20
2019-02-21T01:44:30.790Z,2.21
2019-02-21T01:47:02.098Z,2.20
2019-02-21T01:49:33.357Z,2.17
2019-02-21T01:52:04.747Z,2.16
2019-02-21T01:54:36.103Z,2.15
2019-02-21T01:57:07.492Z,2.14
2019-02-21T01:59:38.749Z,2.13
2019-02-21T02:02:10.222Z,2.11
2019-02-21T02:04:41.494Z,2.05
2019-02-21T02:07:13.006Z,2.05
2019-02-21T02:09:44.409Z,2.06
2019-02-21T02:12:17.408Z,2.04
2019-02-21T02:14:48.857Z,2.00
2019-02-21T02:17:21.327Z,2.00
2019-02-21T02:19:52.752Z,1.95
2019-02-21T02:22:25.325Z,1.92
2019-02-21T02:24:56.682Z,1.92
2019-02-21T02:27:28.154Z,1.88
2019-02-21T02:29:59.541Z,1.83
2019-02-21T02:32:31.291Z,1.74
2019-02-21T02:35:02.617Z,1.66
2019-02-21T02:37:34.117Z,1.60
2019-02-21T02:40:06.503Z,1.59
2019-02-21T02:42:37.870Z,1.59
2019-02-21T02:45:09.290Z,1.57
2019-02-21T02:47:40.710Z,1.56
2019-02-21T02:50:12.058Z,1.51
2019-02-21T02:52:43.591Z,1.46
2019-02-21T02:55:15.000Z,1.39
2019-02-21T02:57:47.367Z,1.38
2019-02-21T03:00:18.789Z,1.34
2019-02-21T03:02:50.329Z,1.37
2019-02-21T03:05:21.686Z,1.40
2019-02-21T03:07:53.179Z,1.38
2019-02-21T03:10:24.637Z,1.38
2019-02-21T03:12:56.032Z,1.42
2019-02-21T03:15:27.319Z,1.41
2019-02-21T03:17:58.720Z,1.42
2019-02-21T03:20:30.062Z,1.37
2019-02-21T03:23:02.979Z,1.37
2019-02-21T03:25:34.282Z,1.35
2019-02-21T03:28:05.748Z,1.38
2019-02-21T03:30:37.080Z,1.44
2019-02-21T03:33:08.605Z,1.51
2019-02-21T03:35:40.947Z,1.58
2019-02-21T03:38:12.465Z,1.63
2019-02-21T03:40:43.829Z,1.64
2019-02-21T03:43:15.273Z,1.65
2019-02-21T03:45:46.559Z,1.64
2019-02-21T03:48:17.942Z,1.65
2019-02-21T03:50:49.267Z,1.65
2019-02-21T03:53:20.661Z,1.69
2019-02-21T03:55:52.557Z,1.72
2019-02-21T03:58:24.056Z,1.84
2019-02-21T04:00:55.562Z,1.86
2019-02-21T04:03:27.343Z,1.88
2019-02-21T04:05:58.759Z,1.95
2019-02-21T04:08:30.122Z,1.97
2019-02-21T04:11:01.459Z,1.99
2019-02-21T04:13:32.764Z,2.00
2019-02-21T04:16:04.671Z,1.96
2019-02-21T04:18:35.997Z,2.00
2019-02-21T04:21:07.294Z,2.01
2019-02-21T04:23:38.636Z,2.06
2019-02-21T04:26:10.033Z,2.03
2019-02-21T04:28:41.413Z,1.96
2019-02-21T04:31:12.664Z,1.93
2019-02-21T04:33:47.416Z,1.88
2019-02-21T04:36:18.766Z,1.86
2019-02-21T04:38:54.518Z,1.85
2019-02-21T04:41:25.932Z,1.83
2019-02-21T04:43:58.954Z,1.79
2019-02-21T04:46:30.382Z,1.74
2019-02-21T04:49:03.067Z,1.71
2019-02-21T04:51:36.394Z,1.67
2019-02-21T04:54:09.393Z,1.65
2019-02-21T04:56:40.841Z,1.67
2019-02-21T04:59:12.164Z,1.70
2019-02-21T05:01:43.752Z,1.71
2019-02-21T05:04:15.250Z,1.62
2019-02-21T05:06:46.517Z,1.63
2019-02-21T05:09:17.857Z,1.59
2019-02-21T05:11:49.119Z,1.52
2019-02-21T05:14:20.450Z,1.45
2019-02-21T05:16:51.707Z,1.42
2019-02-21T05:19:23.024Z,1.36
2019-02-21T05:21:54.296Z,1.37
2019-02-21T05:24:25.642Z,1.31
2019-02-21T05:26:58.636Z,1.28
2019-02-21T05:29:29.969Z,1.21
2019-02-21T05:32:08.784Z,1.15
2019-02-21T05:34:56.820Z,1.10
2019-02-21T05:37:35.655Z,1.08
2019-02-21T05:40:15.619Z,1.02
2019-02-21T05:42:48.587Z,0.93
2019-02-21T05:45:37.533Z,0.87
2019-02-21T05:48:10.434Z,0.80
2019-02-21T05:50:46.189Z,0.76
2019-02-21T05:53:36.945Z,0.69
2019-02-21T05:56:27.996Z,0.74
2019-02-21T05:59:03.820Z,0.82
2019-02-21T06:01:37.937Z,0.91
2019-02-21T06:04:14.019Z,1.02
2019-02-21T06:06:46.954Z,1.09
2019-02-21T06:09:19.991Z,1.11
2019-02-21T06:11:55.878Z,1.16
2019-02-21T06:14:37.589Z,1.21
2019-02-21T06:17:10.659Z,1.25
2019-02-21T06:19:44.701Z,1.32
2019-02-21T06:22:20.245Z,1.30
2019-02-21T06:25:02.049Z,1.29
2019-02-21T06:27:40.737Z,1.37
2019-02-21T06:30:13.762Z,1.43
2019-02-21T06:32:45.177Z,1.56
2019-02-21T06:35:16.506Z,1.55
2019-02-21T06:37:47.882Z,1.61
2019-02-21T06:40:19.165Z,1.65
2019-02-21T06:42:50.476Z,1.71
2019-02-21T06:45:21.728Z,1.72
2019-02-21T06:47:53.127Z,1.74
2019-02-21T06:50:27.110Z,1.72
2019-02-21T06:52:57.392Z,1.73
2019-02-21T06:55:28.712Z,1.80
2019-02-21T06:58:00.144Z,1.85
2019-02-21T07:00:31.402Z,1.89
2019-02-21T07:03:02.744Z,1.92
2019-02-21T07:05:34.005Z,1.98
2019-02-21T07:08:05.453Z,2.05
2019-02-21T07:10:36.698Z,2.15
2019-02-21T07:13:08.010Z,2.20
2019-02-21T07:15:41.318Z,2.28
2019-02-21T07:18:12.326Z,2.29
2019-02-21T07:20:43.644Z,2.33
2019-02-21T07:23:15.045Z,2.40
2019-02-21T07:25:50.635Z,2.44
2019-02-21T07:28:21.988Z,2.48
2019-02-21T07:30:53.458Z,2.54
2019-02-21T07:33:28.786Z,2.63
2019-02-21T07:35:57.768Z,2.66
2019-02-21T07:38:29.164Z,2.71
2019-02-21T07:41:00.467Z,2.76
2019-02-21T07:43:32.114Z,2.82
2019-02-21T07:46:03.467Z,2.88
2019-02-21T07:48:36.617Z,2.96
2019-02-21T07:51:08.213Z,3.02
2019-02-21T07:53:39.545Z,3.08
2019-02-21T07:56:10.874Z,3.15
2019-02-21T07:58:42.196Z,3.23
2019-02-21T08:01:13.458Z,3.31
2019-02-21T08:03:48.109Z,3.40
2019-02-21T08:06:19.630Z,3.45
2019-02-21T08:08:50.802Z,3.52
2019-02-21T08:11:22.171Z,3.62
2019-02-21T08:13:54.620Z,3.71
2019-02-21T08:16:25.892Z,3.76
2019-02-21T08:18:57.231Z,3.84
2019-02-21T08:21:28.660Z,3.92
2019-02-21T08:24:00.022Z,3.99
2019-02-21T08:26:31.373Z,4.06
2019-02-21T08:29:02.842Z,4.14
2019-02-21T08:31:34.256Z,4.20
2019-02-21T08:34:19.758Z,4.30
2019-02-21T08:36:51.153Z,4.36
2019-02-21T08:39:22.476Z,4.44
2019-02-21T08:41:55.229Z,4.53
2019-02-21T08:44:28.775Z,4.60
2019-02-21T08:46:59.798Z,4.69
2019-02-21T08:49:31.294Z,4.80
2019-02-21T08:52:02.623Z,4.91
2019-02-21T08:54:33.912Z,4.99
2019-02-21T08:57:05.276Z,5.07
2019-02-21T08:59:36.684Z,5.16
2019-02-21T09:02:08.083Z,5.27
2019-02-21T09:04:42.675Z,5.37
2019-02-21T09:07:14.015Z,5.45
2019-02-21T09:09:45.332Z,5.53
2019-02-21T09:12:16.600Z,5.64
2019-02-21T09:14:47.963Z,5.75
2019-02-21T09:17:19.282Z,5.84
2019-02-21T09:19:50.700Z,5.94
2019-02-21T09:22:22.045Z,6.06
2019-02-21T09:24:53.505Z,6.15
2019-02-21T09:27:24.830Z,6.23
2019-02-21T09:29:56.216Z,6.36
2019-02-21T09:32:27.603Z,6.48
2019-02-21T09:34:58.911Z,6.57
2019-02-21T09:37:30.260Z,6.62
2019-02-21T09:40:01.590Z,6.69
2019-02-21T09:42:33.182Z,6.77
2019-02-21T09:45:09.330Z,6.87
2019-02-21T09:47:40.422Z,7.02
2019-02-21T09:50:12.884Z,7.12
2019-02-21T09:52:44.364Z,7.15
2019-02-21T09:55:18.445Z,7.16
2019-02-21T09:57:49.774Z,7.21
2019-02-21T10:00:24.796Z,7.25
2019-02-21T10:02:56.790Z,7.27
2019-02-21T10:05:28.233Z,7.36
2019-02-21T10:07:59.775Z,7.48
2019-02-21T10:10:31.253Z,7.69
2019-02-21T10:13:02.638Z,7.99
2019-02-21T10:15:33.964Z,8.20
2019-02-21T10:18:05.383Z,8.41
2019-02-21T10:20:36.718Z,8.55
2019-02-21T10:23:08.092Z,8.70
2019-02-21T10:25:41.209Z,8.70
2019-02-21T10:28:12.574Z,8.62
2019-02-21T10:30:44.072Z,8.61
2019-02-21T10:33:15.518Z,8.62
2019-02-21T10:35:47.793Z,8.66
2019-02-21T10:38:19.110Z,8.70
2019-02-21T10:40:50.458Z,8.73
2019-02-21T10:43:21.857Z,8.69
2019-02-21T10:45:53.315Z,8.72
2019-02-21T10:48:25.182Z,8.72
2019-02-21T10:50:56.638Z,8.74
2019-02-21T10:53:28.108Z,8.77
2019-02-21T10:55:59.501Z,8.74
2019-02-21T10:58:30.919Z,8.62
2019-02-21T11:01:02.360Z,8.68
2019-02-21T11:03:34.831Z,8.75
2019-02-21T11:06:06.229Z,8.87
2019-02-21T11:08:37.526Z,9.05
2019-02-21T11:11:10.121Z,9.20
2019-02-21T11:13:41.466Z,9.41
2019-02-21T11:16:12.863Z,9.69
2019-02-21T11:18:44.274Z,10.02
2019-02-21T11:21:15.886Z,10.23
2019-02-21T11:23:47.171Z,10.48
2019-02-21T11:26:18.718Z,10.66
2019-02-21T11:28:50.143Z,10.67
2019-02-21T11:31:21.543Z,10.74
2019-02-21T11:33:53.030Z,10.84
2019-02-21T11:36:24.619Z,10.92
2019-02-21T11:38:55.916Z,10.93
2019-02-21T11:41:27.347Z,10.97
2019-02-21T11:43:58.633Z,10.92
2019-02-21T11:46:30.028Z,10.84
2019-02-21T11:49:01.396Z,10.82
2019-02-21T11:51:32.775Z,10.89
2019-02-21T11:54:04.158Z,10.99
2019-02-21T11:56:35.556Z,11.06
2019-02-21T11:59:06.918Z,11.12
2019-02-21T12:01:39.696Z,11.18
2019-02-21T12:04:11.219Z,11.25
2019-02-21T12:06:42.640Z,11.32
2019-02-21T12:09:14.168Z,11.38
2019-02-21T12:11:45.644Z,11.45
2019-02-21T12:14:17.011Z,11.64
2019-02-21T12:16:48.327Z,11.69
2019-02-21T12:19:19.687Z,11.73
2019-02-21T12:21:58.722Z,11.80
2019-02-21T12:24:24.163Z,11.91
2019-02-21T12:26:55.559Z,11.91
2019-02-21T12:29:26.879Z,12.01
2019-02-21T12:31:58.275Z,12.26
2019-02-21T12:34:29.590Z,12.52
2019-02-21T12:37:01.077Z,12.66
2019-02-21T12:39:32.513Z,12.86
2019-02-21T12:42:04.007Z,13.05
2019-02-21T12:44:36.325Z,13.18
2019-02-21T12:47:07.693Z,13.43
2019-02-21T12:49:39.063Z,13.53
2019-02-21T12:52:10.512Z,13.67
2019-02-21T12:54:41.825Z,13.70
2019-02-21T12:57:13.184Z,13.67
2019-02-21T12:59:44.663Z,13.61
2019-02-21T13:02:16.106Z,13.48
2019-02-21T13:04:47.660Z,13.40
2019-02-21T13:07:19.129Z,13.37
2019-02-21T13:09:50.544Z,13.31
2019-02-21T13:12:21.984Z,13.34
2019-02-21T13:14:53.357Z,13.39
2019-02-21T13:17:24.837Z,13.43
2019-02-21T13:19:56.209Z,13.64
2019-02-21T13:22:27.577Z,13.95
2019-02-21T13:25:00.826Z,14.12
2019-02-21T13:27:33.686Z,14.26
2019-02-21T13:30:08.804Z,14.32
2019-02-21T13:32:40.196Z,14.33
2019-02-21T13:35:12.176Z,14.44
2019-02-21T13:37:43.736Z,14.46
2019-02-21T13:40:21.213Z,14.28
2019-02-21T13:42:52.251Z,14.16
2019-02-21T13:45:23.648Z,13.95
2019-02-21T13:47:55.147Z,13.87
2019-02-21T13:50:26.652Z,13.73
2019-02-21T13:52:57.934Z,13.67
2019-02-21T13:55:29.404Z,13.76
2019-02-21T13:58:00.983Z,13.88
2019-02-21T14:00:32.407Z,13.93
2019-02-21T14:03:09.831Z,13.98
2019-02-21T14:05:43.033Z,14.02
2019-02-21T14:08:15.547Z,14.07
2019-02-21T14:10:46.895Z,14.13
2019-02-21T14:13:18.337Z,14.12
2019-02-21T14:15:49.834Z,14.05
2019-02-21T14:18:24.326Z,13.89
2019-02-21T14:20:54.646Z,13.80
2019-02-21T14:23:27.986Z,13.83
2019-02-21T14:25:59.303Z,13.85
2019-02-21T14:28:30.879Z,13.84
2019-02-21T14:31:03.412Z,13.85
2019-02-21T14:33:35.423Z,13.84
2019-02-21T14:36:15.137Z,13.88
2019-02-21T14:38:40.994Z,13.94
2019-02-21T14:41:12.462Z,13.97
2019-02-21T14:43:43.922Z,14.04
2019-02-21T14:46:16.815Z,14.09
2019-02-21T14:48:48.320Z,13.98
2019-02-21T14:51:19.702Z,13.84
2019-02-21T14:53:51.052Z,13.78
2019-02-21T14:56:22.493Z,13.78
2019-02-21T14:58:54.908Z,13.69
2019-02-21T15:01:26.972Z,13.62
2019-02-21T15:03:58.528Z,13.73
2019-02-21T15:06:32.601Z,13.88
2019-02-21T15:09:06.378Z,13.81
2019-02-21T15:11:38.536Z,13.65
2019-02-21T15:14:10.032Z,13.56
2019-02-21T15:16:41.306Z,13.51
2019-02-21T15:19:12.683Z,13.67
2019-02-21T15:21:44.022Z,13.61
2019-02-21T15:24:15.437Z,13.60
2019-02-21T15:26:46.982Z,13.73
2019-02-21T15:29:18.441Z,13.89
2019-02-21T15:31:50.108Z,13.88
2019-02-21T15:34:24.042Z,13.80
2019-02-21T15:36:55.462Z,13.74
2019-02-21T15:39:26.792Z,13.66
2019-02-21T15:41:58.104Z,13.69
2019-02-21T15:44:29.386Z,13.72
2019-02-21T15:47:01.030Z,13.80
2019-02-21T15:49:32.665Z,13.93
2019-02-21T15:52:04.273Z,14.08
2019-02-21T15:54:35.754Z,14.14
2019-02-21T15:57:07.592Z,14.11
2019-02-21T15:59:39.086Z,14.02
2019-02-21T16:02:10.465Z,14.06
2019-02-21T16:04:43.029Z,14.16
2019-02-21T16:07:14.804Z,14.15
2019-02-21T16:09:46.279Z,14.17
2019-02-21T16:12:18.301Z,14.22
2019-02-21T16:14:49.897Z,14.15
2019-02-21T16:17:21.326Z,14.19
2019-02-21T16:19:52.864Z,14.21
2019-02-21T16:22:24.246Z,14.19
2019-02-21T16:24:55.589Z,14.16
2019-02-21T16:27:27.183Z,14.12
2019-02-21T16:29:58.631Z,14.04
2019-02-21T16:32:29.925Z,14.03
2019-02-21T16:35:01.403Z,14.05
2019-02-21T16:37:32.901Z,14.05
2019-02-21T16:40:05.517Z,13.96
2019-02-21T16:42:36.977Z,13.90
2019-02-21T16:45:12.178Z,13.93
2019-02-21T16:47:43.752Z,13.94
2019-02-21T16:50:16.826Z,13.88
2019-02-21T16:52:48.104Z,13.82
2019-02-21T16:55:23.995Z,13.81
2019-02-21T16:57:55.520Z,13.75
2019-02-21T17:00:38.942Z,13.67
2019-02-21T17:03:04.009Z,13.59
2019-02-21T17:05:35.677Z,13.55
2019-02-21T17:08:08.160Z,13.51
2019-02-21T17:10:39.661Z,13.48
2019-02-21T17:13:11.110Z,13.41
2019-02-21T17:15:42.466Z,13.29
2019-02-21T17:18:14.069Z,13.20
2019-02-21T17:20:45.634Z,13.05
2019-02-21T17:23:22.949Z,12.85
2019-02-21T17:25:50.451Z,12.66
2019-02-21T17:28:23.982Z,12.52
2019-02-21T17:30:56.284Z,12.45
2019-02-21T17:33:27.717Z,12.42
2019-02-21T17:36:00.811Z,12.37
2019-02-21T17:38:32.374Z,12.37
2019-02-21T17:41:03.815Z,12.28
2019-02-21T17:43:38.911Z,12.21
2019-02-21T17:46:11.901Z,12.13
2019-02-21T17:48:44.565Z,12.09
2019-02-21T17:51:16.100Z,12.08
2019-02-21T17:53:47.606Z,12.02
2019-02-21T17:56:19.039Z,11.96
2019-02-21T17:58:50.490Z,11.92
2019-02-21T18:01:21.957Z,11.84
2019-02-21T18:03:53.406Z,11.70
2019-02-21T18:06:24.984Z,11.59
2019-02-21T18:08:57.857Z,11.57
2019-02-21T18:11:34.270Z,11.59
2019-02-21T18:14:05.463Z,11.53
2019-02-21T18:16:37.243Z,11.50
2019-02-21T18:19:08.776Z,11.53
2019-02-21T18:21:40.126Z,11.53
2019-02-21T18:24:11.557Z,11.53
2019-02-21T18:26:43.088Z,11.54
2019-02-21T18:29:14.607Z,11.53
2019-02-21T18:31:46.076Z,11.53
2019-02-21T18:34:17.479Z,11.58
2019-02-21T18:36:48.885Z,11.55
2019-02-21T18:39:20.642Z,11.52
2019-02-21T18:41:52.242Z,11.50
2019-02-21T18:44:23.697Z,11.47
2019-02-21T18:46:55.252Z,11.39
2019-02-21T18:49:27.187Z,11.36
2019-02-21T18:51:58.707Z,11.32
2019-02-21T18:54:30.227Z,11.29
2019-02-21T18:57:07.566Z,11.23
2019-02-21T18:59:39.256Z,11.20
2019-02-21T19:02:11.015Z,11.13
2019-02-21T19:04:42.533Z,11.06
2019-02-21T19:07:15.798Z,11.02
2019-02-21T19:09:48.937Z,10.98
2019-02-21T19:12:20.383Z,10.92
2019-02-21T19:14:51.862Z,10.94
2019-02-21T19:17:23.290Z,10.87
2019-02-21T19:19:55.737Z,10.79
2019-02-21T19:22:27.340Z,10.73
2019-02-21T19:24:58.701Z,10.69
2019-02-21T19:27:37.030Z,10.69
2019-02-21T19:30:03.409Z,10.57
2019-02-21T19:32:38.397Z,10.49
2019-02-21T19:35:12.181Z,10.36
2019-02-21T19:37:43.606Z,10.31
2019-02-21T19:40:15.975Z,10.20
2019-02-21T19:42:47.527Z,10.13
2019-02-21T19:45:36.775Z,10.06
2019-02-21T19:48:26.524Z,10.03
2019-02-21T19:51:08.552Z,10.01
2019-02-21T19:53:40.202Z,9.89
2019-02-21T19:56:11.791Z,9.83
2019-02-21T19:58:46.429Z,9.88
2019-02-21T20:01:18.090Z,9.91
2019-02-21T20:03:52.308Z,9.92
2019-02-21T20:06:23.836Z,9.95
2019-02-21T20:08:55.435Z,9.90
2019-02-21T20:11:26.958Z,9.80
2019-02-21T20:13:58.420Z,9.73
2019-02-21T20:16:29.901Z,9.62
2019-02-21T20:19:01.362Z,9.51
2019-02-21T20:21:32.841Z,9.44
2019-02-21T20:24:04.314Z,9.46
2019-02-21T20:26:35.662Z,9.43
2019-02-21T20:29:07.044Z,9.47
2019-02-21T20:31:39.230Z,9.45
2019-02-21T20:34:12.846Z,9.39
2019-02-21T20:36:50.967Z,9.35
2019-02-21T20:39:18.866Z,9.30
2019-02-21T20:41:53.231Z,9.37
2019-02-21T20:44:26.741Z,9.33
2019-02-21T20:46:58.116Z,9.33
2019-02-21T20:49:29.512Z,9.36
2019-02-21T20:52:01.163Z,9.39
2019-02-21T20:54:32.729Z,9.41
2019-02-21T20:57:04.235Z,9.41
2019-02-21T20:59:35.809Z,9.39
2019-02-21T21:02:07.532Z,9.40
2019-02-21T21:04:39.447Z,9.39
2019-02-21T21:07:11.122Z,9.41
2019-02-21T21:09:42.877Z,9.47
2019-02-21T21:12:14.390Z,9.55
2019-02-21T21:14:45.948Z,9.59
2019-02-21T21:17:17.447Z,9.63
2019-02-21T21:19:50.420Z,9.65
2019-02-21T21:22:21.769Z,9.68
2019-02-21T21:24:53.145Z,9.68
2019-02-21T21:27:24.585Z,9.73
2019-02-21T21:29:56.082Z,9.85
2019-02-21T21:32:27.503Z,9.91
2019-02-21T21:34:58.835Z,9.95
2019-02-21T21:37:30.379Z,10.01
2019-02-21T21:40:07.047Z,10.02
2019-02-21T21:42:38.725Z,9.94
2019-02-21T21:45:18.412Z,9.86
2019-02-21T21:47:49.896Z,9.78
2019-02-21T21:50:23.376Z,9.67
2019-02-21T21:52:54.900Z,9.60
2019-02-21T21:55:27.143Z,9.55
2019-02-21T21:57:58.481Z,9.55
2019-02-21T22:00:29.899Z,9.59
2019-02-21T22:03:01.243Z,9.50
2019-02-21T22:05:32.797Z,9.44
2019-02-21T22:08:04.643Z,9.45
2019-02-21T22:10:36.000Z,9.48
2019-02-21T22:13:07.335Z,9.61
2019-02-21T22:15:38.891Z,9.67
2019-02-21T22:18:10.305Z,9.68
2019-02-21T22:20:42.698Z,9.69
2019-02-21T22:23:14.057Z,9.70
2019-02-21T22:25:45.531Z,9.67
2019-02-21T22:28:16.802Z,9.62
2019-02-21T22:30:48.112Z,9.56
2019-02-21T22:33:19.525Z,9.49
2019-02-21T22:35:52.367Z,9.46
2019-02-21T22:38:23.727Z,9.43
2019-02-21T22:40:55.167Z,9.46
2019-02-21T22:43:26.419Z,9.57
2019-02-21T22:45:57.965Z,9.70
2019-02-21T22:48:29.257Z,9.70
2019-02-21T22:51:00.641Z,9.72
2019-02-21T22:53:31.924Z,9.71
2019-02-21T22:56:04.419Z,9.72
2019-02-21T22:58:44.709Z,9.83
2019-02-21T23:01:25.353Z,9.84
2019-02-21T23:04:05.780Z,9.85
2019-02-21T23:06:56.642Z,9.84
2019-02-21T23:09:28.392Z,9.86
2019-02-21T23:12:00.011Z,9.88
2019-02-21T23:14:32.604Z,9.89
2019-02-21T23:17:04.295Z,9.94
2019-02-21T23:19:35.786Z,9.91
2019-02-21T23:22:07.244Z,9.94
2019-02-21T23:24:38.618Z,10.03
2019-02-21T23:27:10.194Z,10.06
2019-02-21T23:29:41.477Z,10.12
2019-02-21T23:32:13.036Z,10.15
2019-02-21T23:34:44.812Z,10.16
2019-02-21T23:37:16.303Z,10.20
2019-02-21T23:39:47.666Z,10.23
2019-02-21T23:42:19.183Z,10.21
2019-02-21T23:44:50.693Z,10.21
2019-02-21T23:47:22.098Z,10.21
2019-02-21T23:49:53.361Z,10.26
2019-02-21T23:52:24.773Z,10.33
2019-02-21T23:54:57.947Z,10.37
2019-02-21T23:57:29.983Z,10.36
